Time;durP1;ratioP1;P1;durP2;ratioP2;P2;SDS_P1;SDS_P2;PMS_P1;PMS_P2;Temp;Humidity;BMP_temperature;BMP_pressure;BME280_temperature;BME280_humidity;BME280_pressure;Samples;Min_cycle;Max_cycle;Signal;HPM_P1;HPM_P2
2023/11/14 00:01:18;;;;;;;41.10;18.50;;;;;;;8.37;83.10;97381.89;135909;1273;24404;-74
2023/11/14 00:04:23;;;;;;;43.50;19.60;;;;;;;8.28;83.88;97382.15;135915;1273;22555;-74
2023/11/14 00:07:26;;;;;;;51.20;27.40;;;;;;;8.18;85.20;97380.50;135899;1273;22533;-74
2023/11/14 00:10:29;;;;;;;;;;;;;;;8.34;84.65;97378.20;135918;1273;24226;-73
2023/11/14 00:13:32;;;;;;;49.60;22.40;;;;;;;8.34;84.70;97376.84;135849;1273;23100;-74
2023/11/14 00:16:35;;;;;;;45.20;20.70;;;;;;;8.40;84.99;97375.20;135891;1273;24411;-73
2023/11/14 00:19:38;;;;;;;43.90;20.90;;;;;;;8.55;83.70;97382.33;135922;1273;24376;-74
2023/11/14 00:22:40;;;;;;;53.70;23.40;;;;;;;8.69;82.68;97378.42;135941;1250;22589;-73
2023/11/14 00:25:44;;;;;;;50.10;21.40;;;;;;;8.73;82.96;97373.14;135886;1273;25019;-73
2023/11/14 00:28:46;;;;;;;45.10;20.80;;;;;;;8.73;83.35;97384.45;135906;1273;22657;-73
2023/11/14 00:31:49;;;;;;;44.10;20.80;;;;;;;8.85;82.66;97386.98;135842;1273;22539;-73
2023/11/14 00:34:51;;;;;;;44.60;21.00;;;;;;;8.76;83.59;97391.84;135889;1273;25380;-73
2023/11/14 00:37:54;;;;;;;46.50;23.40;;;;;;;8.89;83.02;97383.05;135878;1273;22545;-73
2023/11/14 00:40:56;;;;;;;43.50;20.70;;;;;;;8.83;83.65;97389.06;135879;1256;22552;-73
2023/11/14 00:43:59;;;;;;;43.80;21.20;;;;;;;8.84;83.50;97387.60;135906;1273;22550;-74
2023/11/14 00:47:01;;;;;;;47.20;20.70;;;;;;;8.75;84.25;97378.58;135883;1273;22553;-73
2023/11/14 00:50:05;;;;;;;;;;;;;;;8.75;85.17;97384.27;135915;1273;22610;-73
2023/11/14 00:53:07;;;;;;;45.90;19.80;;;;;;;8.68;86.03;97404.01;135872;1273;24280;-73
2023/11/14 00:56:10;;;;;;;40.90;19.90;;;;;;;8.88;84.74;97402.80;135888;1273;22546;-73
2023/11/14 00:59:12;;;;;;;43.70;20.40;;;;;;;8.91;84.50;97403.63;135853;1274;22542;-73
2023/11/14 01:02:15;;;;;;;40.10;19.90;;;;;;;8.94;84.68;97401.66;135864;1273;25472;-73
2023/11/14 01:05:17;;;;;;;44.60;21.10;;;;;;;8.98;84.42;97396.60;135892;1273;25321;-73
2023/11/14 01:08:20;;;;;;;41.10;19.60;;;;;;;8.87;85.71;97377.58;135907;1273;23909;-73
2023/11/14 01:11:23;;;;;;;;;;;;;;;8.86;85.28;97408.22;135850;1273;22519;-73
2023/11/14 01:14:26;;;;;;;42.40;20.50;;;;;;;8.79;86.27;97409.09;135923;1273;22532;-73
2023/11/14 01:17:29;;;;;;;41.10;19.80;;;;;;;8.75;87.20;97402.91;135918;1273;22530;-73
2023/11/14 01:20:31;;;;;;;;;;;;;;;8.97;86.26;97416.76;135909;1260;22531;-73
2023/11/14 01:23:34;;;;;;;41.40;18.70;;;;;;;9.03;86.60;97402.34;135841;1273;22538;-73
2023/11/14 01:26:37;;;;;;;52.40;22.80;;;;;;;9.17;86.46;97328.02;135854;1256;24191;-73
2023/11/14 01:29:40;;;;;;;40.40;20.90;;;;;;;9.20;86.67;97321.33;135843;1274;22527;-73
2023/11/14 01:32:42;;;;;;;45.40;21.30;;;;;;;9.18;87.37;97286.27;135876;1274;22545;-73
2023/11/14 01:35:45;;;;;;;42.20;20.30;;;;;;;9.27;87.51;97230.65;135900;1273;22551;-74
2023/11/14 01:38:47;;;;;;;40.10;18.40;;;;;;;9.24;88.24;97227.73;135874;1274;22544;-74
2023/11/14 01:41:50;;;;;;;36.90;17.30;;;;;;;9.20;89.33;97211.16;135896;1273;22582;-73
2023/11/14 01:44:52;;;;;;;37.90;17.50;;;;;;;9.24;90.03;97223.56;135921;1274;22534;-73
2023/11/14 01:47:55;;;;;;;37.70;17.30;;;;;;;9.26;89.78;97227.73;135843;1274;22552;-73
2023/11/14 01:50:57;;;;;;;34.90;16.70;;;;;;;9.29;89.41;97249.44;135906;1274;22642;-73
2023/11/14 01:54:00;;;;;;;35.70;17.30;;;;;;;9.40;89.46;97255.20;135874;1274;22686;-73
2023/11/14 01:57:02;;;;;;;36.90;17.60;;;;;;;9.45;89.32;97284.68;135916;1273;22527;-73
2023/11/14 02:00:05;;;;;;;40.90;20.60;;;;;;;9.50;89.00;97297.65;135961;1274;22680;-73
2023/11/14 02:03:07;;;;;;;;;;;;;;;9.50;89.17;97292.61;135914;1274;22524;-73
2023/11/14 02:06:10;;;;;;;42.50;20.90;;;;;;;9.59;88.97;97286.69;135895;1274;22535;-73
2023/11/14 02:09:12;;;;;;;37.00;18.10;;;;;;;9.72;88.67;97295.73;135838;1273;22523;-73
2023/11/14 02:12:15;;;;;;;38.70;19.20;;;;;;;9.52;90.27;97307.79;135882;1274;22543;-73
2023/11/14 02:15:17;;;;;;;;;;;;;;;9.40;91.94;97302.69;135927;1274;22526;-73
2023/11/14 02:18:20;;;;;;;41.80;21.00;;;;;;;9.20;96.16;97308.27;135848;1274;22547;-73
2023/11/14 02:21:22;;;;;;;;;;;;;;;9.30;96.87;97300.01;135896;1274;22556;-73
2023/11/14 02:24:25;;;;;;;36.80;17.70;;;;;;;9.26;98.79;97306.02;135829;1274;22527;-73
2023/11/14 02:27:27;;;;;;;42.90;20.30;;;;;;;9.32;99.65;97311.15;135858;1274;22620;-73
2023/11/14 02:30:30;;;;;;;;;;;;;;;9.43;100.00;97309.43;135879;1274;22579;-73
2023/11/14 02:33:33;;;;;;;36.40;15.50;;;;;;;9.51;100.00;97308.63;135838;1256;23309;-73
2023/11/14 02:36:37;;;;;;;34.60;14.30;;;;;;;9.70;100.00;97289.44;135911;1274;24194;-73
2023/11/14 02:39:40;;;;;;;29.40;12.40;;;;;;;10.12;100.00;97287.60;135923;1274;22538;-74
2023/11/14 02:42:42;;;;;;;27.10;11.00;;;;;;;10.16;100.00;97300.50;135863;1259;22551;-73
2023/11/14 02:45:45;;;;;;;;;;;;;;;10.17;100.00;97300.71;135839;1274;22523;-73
2023/11/14 02:48:47;;;;;;;25.60;9.10;;;;;;;10.38;100.00;97309.69;135817;1274;22559;-73
2023/11/14 02:51:50;;;;;;;22.70;7.90;;;;;;;10.67;100.00;97312.02;135835;1274;22549;-73
2023/11/14 02:54:52;;;;;;;22.90;7.70;;;;;;;10.75;100.00;97314.80;135820;1274;23132;-73
2023/11/14 02:57:54;;;;;;;20.00;6.80;;;;;;;10.79;100.00;97316.73;135906;1274;22565;-73
2023/11/14 03:00:58;;;;;;;22.40;6.60;;;;;;;10.95;100.00;97316.53;135864;1273;22538;-73
2023/11/14 03:04:00;;;;;;;19.30;5.70;;;;;;;11.22;100.00;97319.13;135896;1274;22612;-73
2023/11/14 03:07:03;;;;;;;19.20;5.70;;;;;;;11.52;100.00;97316.32;135814;1273;22633;-72
2023/11/14 03:10:05;;;;;;;16.70;4.30;;;;;;;11.46;100.00;97304.61;135911;1273;22530;-72
2023/11/14 03:13:08;;;;;;;14.90;3.90;;;;;;;11.63;100.00;97302.75;135845;1274;22543;-73
2023/11/14 03:16:11;;;;;;;14.40;3.30;;;;;;;11.28;100.00;97298.65;135875;1274;22536;-73
2023/11/14 03:19:14;;;;;;;10.60;3.40;;;;;;;11.52;100.00;97305.52;135909;1273;22556;-73
2023/11/14 03:22:16;;;;;;;9.80;3.10;;;;;;;11.76;100.00;97301.27;135909;1273;22557;-73
2023/11/14 03:25:18;;;;;;;13.50;3.30;;;;;;;12.36;100.00;97300.91;135857;1273;22549;-73
2023/11/14 03:28:21;;;;;;;9.80;2.70;;;;;;;12.09;100.00;97300.02;135917;1274;22537;-73
2023/11/14 03:31:24;;;;;;;8.30;2.50;;;;;;;11.98;100.00;97312.80;135862;1273;24479;-73
2023/11/14 03:34:26;;;;;;;11.70;2.80;;;;;;;12.14;100.00;97329.55;135872;1273;25227;-72
2023/11/14 03:37:29;;;;;;;11.80;2.80;;;;;;;12.19;100.00;97336.79;135892;1273;22547;-73
2023/11/14 03:40:31;;;;;;;9.60;2.60;;;;;;;12.12;100.00;97340.23;135867;1273;22540;-73
2023/11/14 03:43:34;;;;;;;;;;;;;;;12.04;100.00;97336.61;135862;1273;22586;-72
2023/11/14 03:46:36;;;;;;;8.40;2.10;;;;;;;12.16;100.00;97330.23;135916;1273;22540;-72
2023/11/14 03:49:39;;;;;;;8.20;2.20;;;;;;;12.18;100.00;97337.11;135922;1273;22534;-72
2023/11/14 03:52:43;;;;;;;8.50;2.20;;;;;;;12.12;100.00;97345.35;135905;1273;22542;-73
2023/11/14 03:55:46;;;;;;;8.90;2.50;;;;;;;12.18;100.00;97348.30;135940;1263;22688;-73
2023/11/14 03:58:49;;;;;;;9.50;2.40;;;;;;;12.33;100.00;97351.35;135898;1273;22529;-72
2023/11/14 04:01:52;;;;;;;8.60;2.30;;;;;;;12.28;100.00;97357.73;135851;1273;22595;-73
2023/11/14 04:04:54;;;;;;;14.20;2.80;;;;;;;12.34;100.00;97368.79;135840;1273;22549;-72
2023/11/14 04:07:57;;;;;;;11.70;2.70;;;;;;;12.43;100.00;97358.62;135927;1273;22528;-73
2023/11/14 04:10:59;;;;;;;8.60;2.40;;;;;;;12.61;100.00;97366.49;135874;1273;22560;-72
2023/11/14 04:14:02;;;;;;;;;;;;;;;12.80;100.00;97363.63;135928;1273;25201;-72
2023/11/14 04:17:04;;;;;;;8.70;2.20;;;;;;;13.00;100.00;97359.39;135866;1273;22615;-73
2023/11/14 04:20:07;;;;;;;;;;;;;;;13.03;100.00;97361.52;135872;1273;22508;-73
2023/11/14 04:23:10;;;;;;;10.20;2.70;;;;;;;13.08;100.00;97365.45;135877;1273;22523;-72
2023/11/14 04:26:13;;;;;;;;;;;;;;;12.93;100.00;97379.65;135979;1273;22505;-72
2023/11/14 04:29:15;;;;;;;11.90;2.60;;;;;;;12.71;100.00;97369.55;135887;1273;22542;-73
2023/11/14 04:32:18;;;;;;;14.20;2.60;;;;;;;12.91;100.00;97368.25;135901;1273;22545;-72
2023/11/14 04:35:21;;;;;;;14.50;2.90;;;;;;;12.94;100.00;97376.54;135926;1273;22579;-72
2023/11/14 04:38:23;;;;;;;16.00;3.40;;;;;;;13.03;100.00;97383.66;135906;1273;22537;-72
2023/11/14 04:41:26;;;;;;;14.10;3.00;;;;;;;13.04;100.00;97387.23;135912;1273;22552;-72
2023/11/14 04:44:28;;;;;;;12.60;2.80;;;;;;;13.08;100.00;97391.80;135895;1273;22529;-72
2023/11/14 04:47:31;;;;;;;;;;;;;;;13.16;100.00;97402.08;135896;1273;22507;-72
2023/11/14 04:50:33;;;;;;;10.80;2.60;;;;;;;13.12;100.00;97409.45;135884;1273;25367;-73
2023/11/14 04:53:36;;;;;;;17.00;2.80;;;;;;;13.10;100.00;97415.80;135925;1273;25224;-72
2023/11/14 04:56:38;;;;;;;13.40;2.90;;;;;;;12.96;100.00;97422.85;135901;1260;22920;-72
2023/11/14 04:59:41;;;;;;;;;;;;;;;12.98;100.00;97424.79;135902;1273;26202;-72
2023/11/14 05:02:43;;;;;;;18.00;3.20;;;;;;;13.19;100.00;97427.80;135855;1273;22542;-71
2023/11/14 05:05:46;;;;;;;22.30;4.00;;;;;;;13.07;100.00;97440.64;135912;1273;22551;-71
2023/11/14 05:08:48;;;;;;;21.80;4.80;;;;;;;13.18;100.00;97444.00;135911;1273;22546;-71
2023/11/14 05:11:51;;;;;;;;;;;;;;;13.32;100.00;97440.46;135936;1274;22547;-71
2023/11/14 05:14:53;;;;;;;18.40;3.20;;;;;;;13.28;100.00;97447.80;135980;1266;22530;-71
2023/11/14 05:17:57;;;;;;;;;;;;;;;13.29;100.00;97456.50;135977;1274;22527;-72
2023/11/14 05:20:59;;;;;;;15.00;3.10;;;;;;;13.29;100.00;97466.54;135897;1273;22531;-72
2023/11/14 05:24:01;;;;;;;20.80;3.20;;;;;;;13.32;100.00;97456.75;135884;1273;22551;-71
2023/11/14 05:27:04;;;;;;;17.50;3.50;;;;;;;13.34;100.00;97466.26;135961;1273;22679;-70
2023/11/14 05:30:09;;;;;;;16.90;2.90;;;;;;;13.22;100.00;97476.29;135912;1273;22540;-71
2023/11/14 05:33:12;;;;;;;18.60;3.20;;;;;;;13.22;100.00;97489.59;135876;1273;22543;-71
2023/11/14 05:36:15;;;;;;;17.40;3.00;;;;;;;13.27;99.97;97492.30;135891;1273;22535;-71
2023/11/14 05:39:18;;;;;;;;;;;;;;;13.22;99.61;97499.15;135875;1273;22527;-72
2023/11/14 05:42:21;;;;;;;8.80;2.30;;;;;;;13.37;97.95;97503.86;135840;1273;22535;-71
2023/11/14 05:45:23;;;;;;;13.20;2.30;;;;;;;13.41;96.85;97506.34;135990;1252;22538;-72
2023/11/14 05:48:26;;;;;;;;;;;;;;;13.39;96.71;97505.99;135947;1273;22607;-72
2023/11/14 05:51:28;;;;;;;16.70;2.60;;;;;;;13.15;98.31;97519.89;135967;1274;22515;-72
2023/11/14 05:54:31;;;;;;;17.70;2.90;;;;;;;13.05;99.15;97526.29;135931;1273;25474;-71
2023/11/14 05:57:34;;;;;;;19.50;2.80;;;;;;;13.11;98.67;97532.37;135915;1273;22554;-72
2023/11/14 06:00:36;;;;;;;;;;;;;;;13.31;96.50;97536.24;135882;1274;22572;-72
2023/11/14 06:03:39;;;;;;;18.70;3.00;;;;;;;13.34;95.37;97540.16;135889;1273;25514;-72
2023/11/14 06:06:41;;;;;;;;;;;;;;;13.29;95.57;97533.96;135981;1274;23189;-72
2023/11/14 06:09:44;;;;;;;18.70;2.90;;;;;;;13.30;94.83;97534.86;135943;1273;22577;-72
2023/11/14 06:12:46;;;;;;;;;;;;;;;13.14;96.01;97531.98;135985;1274;22527;-72
2023/11/14 06:15:49;;;;;;;16.70;3.00;;;;;;;13.13;96.22;97544.81;135942;1274;24361;-72
2023/11/14 06:18:51;;;;;;;;;;;;;;;13.20;96.45;97557.31;135918;1256;22939;-72
2023/11/14 06:21:54;;;;;;;13.00;2.80;;;;;;;13.20;97.63;97548.76;135890;1274;25509;-73
2023/11/14 06:24:56;;;;;;;16.20;2.90;;;;;;;12.98;98.68;97550.40;135986;1274;22578;-72
2023/11/14 06:27:59;;;;;;;16.90;4.00;;;;;;;12.89;99.45;97549.88;135957;1274;22537;-73
2023/11/14 06:31:01;;;;;;;12.60;2.60;;;;;;;12.91;99.82;97554.77;136027;1274;22532;-73
2023/11/14 06:34:04;;;;;;;17.50;3.30;;;;;;;13.00;98.80;97572.14;136025;1273;22546;-72
2023/11/14 06:37:06;;;;;;;14.80;2.90;;;;;;;12.85;100.00;97574.27;135982;1274;22549;-73
2023/11/14 06:40:09;;;;;;;15.60;2.70;;;;;;;12.79;100.00;97591.04;135897;1273;22537;-73
2023/11/14 06:43:12;;;;;;;14.10;2.40;;;;;;;12.78;100.00;97597.33;136032;1273;22540;-73
2023/11/14 06:46:15;;;;;;;14.70;3.10;;;;;;;12.79;100.00;97600.16;135969;1274;22510;-74
2023/11/14 06:49:17;;;;;;;;;;;;;;;12.74;100.00;97599.56;136008;1274;22622;-74
2023/11/14 06:52:21;;;;;;;14.50;2.80;;;;;;;12.68;100.00;97609.02;135959;1274;22534;-74
2023/11/14 06:55:23;;;;;;;19.10;3.90;;;;;;;12.85;100.00;97604.27;135984;1273;22554;-74
2023/11/14 06:58:26;;;;;;;;;;;;;;;12.74;100.00;97608.39;135948;1274;22534;-72
2023/11/14 07:01:28;;;;;;;20.40;3.70;;;;;;;12.72;100.00;97615.35;135996;1264;22547;-72
2023/11/14 07:04:31;;;;;;;20.70;3.30;;;;;;;12.81;100.00;97619.13;135990;1273;22561;-72
2023/11/14 07:07:33;;;;;;;19.50;3.70;;;;;;;12.95;100.00;97616.89;136016;1273;22557;-74
2023/11/14 07:10:36;;;;;;;20.10;3.50;;;;;;;12.94;100.00;97614.31;136007;1273;22522;-73
2023/11/14 07:13:38;;;;;;;;;;;;;;;12.93;100.00;97605.75;135973;1273;22511;-73
2023/11/14 07:16:41;;;;;;;;;;;;;;;13.10;99.96;97604.75;135972;1273;26490;-73
2023/11/14 07:39:38;;;;;;;19.60;3.80;;;;;;;12.05;100.00;97606.19;131983;1309;558277;-72
2023/11/14 07:42:41;;;;;;;20.20;4.10;;;;;;;12.75;100.00;97613.04;130664;1290;5319255;-73
2023/11/14 07:45:43;;;;;;;;;;;;;;;12.80;100.00;97621.84;134699;1290;22490;-72
2023/11/14 07:48:46;;;;;;;18.30;3.10;;;;;;;13.03;100.00;97616.47;134673;1290;22743;-74
2023/11/14 07:51:49;;;;;;;;;;;;;;;13.07;100.00;97618.05;134685;1276;22632;-73
2023/11/14 07:54:53;;;;;;;;;;;;;;;12.92;100.00;97611.80;134690;1290;22535;-70
2023/11/14 07:57:56;;;;;;;20.80;4.30;;;;;;;12.96;100.00;97618.52;134682;1290;22561;-75
2023/11/14 08:00:59;;;;;;;;;;;;;;;13.12;100.00;97623.87;134735;1290;22545;-73
2023/11/14 08:04:05;;;;;;;24.70;6.20;;;;;;;13.32;100.00;97619.85;134675;1290;22498;-71
2023/11/14 08:07:09;;;;;;;23.20;5.70;;;;;;;13.30;100.00;97614.92;134690;1290;22565;-73
2023/11/14 08:10:12;;;;;;;20.70;3.80;;;;;;;13.19;100.00;97626.11;135157;1283;24596;-73
2023/11/14 08:13:16;;;;;;;20.30;4.10;;;;;;;13.28;100.00;97620.73;135203;1282;22553;-72
2023/11/14 08:16:19;;;;;;;15.60;3.30;;;;;;;13.22;100.00;97621.40;135196;1283;22533;-72
2023/11/14 08:19:21;;;;;;;;;;;;;;;13.12;100.00;97630.96;135182;1283;22535;-72
2023/11/14 08:22:24;;;;;;;21.10;3.70;;;;;;;13.07;100.00;97637.66;135217;1282;23727;-72
2023/11/14 08:25:27;;;;;;;;;;;;;;;13.00;100.00;97641.16;135211;1283;22535;-72
2023/11/14 08:28:29;;;;;;;19.40;3.40;;;;;;;12.90;100.00;97643.98;135194;1283;24226;-71
2023/11/14 08:31:32;;;;;;;;;;;;;;;13.09;100.00;97644.31;135228;1283;22536;-72
2023/11/14 08:34:34;;;;;;;18.50;4.00;;;;;;;13.27;100.00;97641.34;135624;1279;22578;-70
2023/11/14 08:37:37;;;;;;;;;;;;;;;13.39;100.00;97641.64;135604;1279;22518;-73
2023/11/14 08:40:39;;;;;;;22.80;4.20;;;;;;;13.66;100.00;97650.65;135557;1279;22551;-74
2023/11/14 08:43:42;;;;;;;;;;;;;;;13.79;100.00;97640.80;135606;1279;24360;-74
2023/11/14 08:46:44;;;;;;;20.30;3.70;;;;;;;13.88;100.00;97648.10;135539;1269;22526;-73
2023/11/14 08:49:47;;;;;;;;;;;;;;;14.21;100.00;97652.06;135566;1279;22511;-72
2023/11/14 08:52:49;;;;;;;17.30;3.30;;;;;;;14.38;100.00;97638.89;135569;1279;25492;-72
2023/11/14 08:55:53;;;;;;;;;;;;;;;14.47;100.00;97628.70;135583;1279;26458;-72
2023/11/14 08:58:56;;;;;;;17.70;3.20;;;;;;;14.58;100.00;97630.42;135598;1279;22545;-70
2023/11/14 09:01:58;;;;;;;15.80;2.80;;;;;;;14.89;100.00;97624.63;135606;1279;22545;-70
2023/11/14 09:05:01;;;;;;;19.20;3.70;;;;;;;14.90;100.00;97640.08;135579;1279;22543;-74
2023/11/14 09:08:04;;;;;;;18.40;3.90;;;;;;;14.60;100.00;97630.77;135546;1279;23929;-72
2023/11/14 09:11:06;;;;;;;19.40;3.70;;;;;;;14.75;100.00;97627.09;135551;1279;22543;-74
2023/11/14 09:14:09;;;;;;;18.10;3.40;;;;;;;14.94;100.00;97625.80;135577;1264;22522;-73
2023/11/14 09:17:11;;;;;;;19.70;3.70;;;;;;;14.96;100.00;97630.30;135568;1259;24228;-71
2023/11/14 09:20:16;;;;;;;20.30;4.10;;;;;;;14.67;100.00;97646.45;135619;1279;24160;-73
2023/11/14 09:23:19;;;;;;;19.10;3.50;;;;;;;14.52;100.00;97636.06;135530;1279;22757;-75
2023/11/14 09:26:23;;;;;;;20.60;3.70;;;;;;;14.57;100.00;97638.23;135502;1279;23021;-73
2023/11/14 09:29:26;;;;;;;15.70;3.40;;;;;;;14.48;100.00;97651.41;135498;1259;22530;-72
2023/11/14 09:32:29;;;;;;;;;;;;;;;14.48;100.00;97651.42;135558;1279;22635;-71
2023/11/14 09:35:31;;;;;;;18.20;3.20;;;;;;;14.42;100.00;97664.30;135530;1279;22552;-70
2023/11/14 09:38:37;;;;;;;;;;;;;;;14.45;100.00;97660.38;135611;1279;22530;-71
2023/11/14 09:41:40;;;;;;;17.50;3.20;;;;;;;14.60;100.00;97655.58;135577;1279;26512;-73
2023/11/14 09:44:42;;;;;;;;;;;;;;;14.59;100.00;97660.05;135562;1259;22628;-73
2023/11/14 09:47:46;;;;;;;18.40;3.60;;;;;;;14.47;100.00;97654.70;135584;1279;25418;-72
2023/11/14 09:50:49;;;;;;;17.60;3.50;;;;;;;14.33;100.00;97657.09;135568;1279;22648;-74
2023/11/14 09:53:52;;;;;;;21.10;3.70;;;;;;;14.40;100.00;97664.30;135611;1279;22539;-72
2023/11/14 09:56:54;;;;;;;;;;;;;;;14.30;100.00;97657.23;135581;1279;22506;-73
2023/11/14 09:59:57;;;;;;;20.00;3.80;;;;;;;14.22;100.00;97648.45;135552;1279;22551;-73
2023/11/14 10:02:59;;;;;;;;;;;;;;;14.47;100.00;97637.79;135581;1279;22503;-73
2023/11/14 10:06:02;;;;;;;18.20;3.90;;;;;;;14.59;100.00;97648.73;135606;1279;22548;-73
2023/11/14 10:09:05;;;;;;;18.70;3.00;;;;;;;14.33;100.00;97654.59;135612;1279;22595;-71
2023/11/14 10:12:08;;;;;;;;;;;;;;;14.54;100.00;97657.05;135591;1279;22551;-72
2023/11/14 10:15:11;;;;;;;22.20;4.10;;;;;;;14.39;100.00;97656.29;135611;1279;22559;-71
2023/11/14 10:18:13;;;;;;;;;;;;;;;14.36;100.00;97666.98;135609;1279;22530;-73
2023/11/14 10:21:16;;;;;;;15.40;3.20;;;;;;;14.23;100.00;97662.08;135590;1279;22519;-72
2023/11/14 10:24:19;;;;;;;;;;;;;;;14.26;100.00;97649.45;135577;1279;22516;-74
2023/11/14 10:27:21;;;;;;;17.20;3.50;;;;;;;14.46;100.00;97647.39;135583;1279;22528;-74
2023/11/14 10:30:24;;;;;;;;;;;;;;;14.55;100.00;97640.02;135553;1279;22537;-73
2023/11/14 10:33:30;;;;;;;19.70;3.20;;;;;;;14.47;100.00;97639.70;135556;1262;22795;-71
2023/11/14 10:36:33;;;;;;;20.90;3.60;;;;;;;14.64;100.00;97621.45;135563;1263;24265;-74
2023/11/14 10:39:36;;;;;;;20.90;3.40;;;;;;;14.88;100.00;97633.52;135598;1279;22571;-72
2023/11/14 10:42:39;;;;;;;13.00;3.40;;;;;;;14.78;100.00;97626.92;135641;1279;22766;-74
2023/11/14 10:45:43;;;;;;;;;;;;;;;14.79;100.00;97648.67;135601;1279;22507;-74
2023/11/14 10:48:46;;;;;;;20.40;4.30;;;;;;;15.09;100.00;97642.98;135580;1279;22536;-70
2023/11/14 10:51:48;;;;;;;;;;;;;;;15.19;100.00;97638.60;135583;1279;22516;-71
2023/11/14 10:54:51;;;;;;;21.10;3.80;;;;;;;15.14;100.00;97637.11;135580;1279;22550;-71
2023/11/14 10:57:54;;;;;;;;;;;;;;;15.33;100.00;97643.21;135573;1279;22503;-73
2023/11/14 11:00:56;;;;;;;;;;;;;;;15.32;100.00;97634.19;135586;1279;22511;-73
2023/11/14 11:03:59;;;;;;;17.20;4.00;;;;;;;15.41;100.00;97658.60;135604;1262;24228;-71
2023/11/14 11:07:02;;;;;;;23.20;4.40;;;;;;;15.38;100.00;97655.37;135607;1262;22544;-71
2023/11/14 11:10:06;;;;;;;18.90;4.40;;;;;;;15.58;100.00;97639.10;135586;1279;22557;-71
2023/11/14 11:13:09;;;;;;;18.10;3.80;;;;;;;15.62;100.00;97643.13;135597;1279;24242;-73
2023/11/14 11:16:12;;;;;;;;;;;;;;;15.58;100.00;97655.39;135585;1279;22546;-71
2023/11/14 11:19:14;;;;;;;15.60;3.20;;;;;;;15.34;100.00;97674.58;135582;1279;25328;-73
2023/11/14 11:22:17;;;;;;;;;;;;;;;15.48;100.00;97670.30;135598;1279;22627;-72
2023/11/14 11:25:21;;;;;;;19.30;3.80;;;;;;;15.49;100.00;97687.04;135581;1279;22543;-71
2023/11/14 11:28:24;;;;;;;21.50;3.50;;;;;;;15.17;100.00;97693.78;135559;1279;22559;-73
2023/11/14 11:31:26;;;;;;;20.40;3.60;;;;;;;14.80;100.00;97674.05;135575;1279;22532;-72
2023/11/14 11:34:29;;;;;;;;;;;;;;;14.66;100.00;97667.80;135569;1279;22545;-72
2023/11/14 11:37:31;;;;;;;21.40;4.00;;;;;;;14.84;100.00;97672.78;135583;1279;22540;-72
2023/11/14 11:40:34;;;;;;;16.60;3.00;;;;;;;15.06;100.00;97659.44;135580;1279;22533;-72
2023/11/14 11:43:38;;;;;;;;;;;;;;;15.08;100.00;97674.34;135603;1279;22541;-72
2023/11/14 11:46:41;;;;;;;21.30;3.80;;;;;;;15.02;100.00;97663.83;135546;1279;22645;-73
2023/11/14 11:49:44;;;;;;;;;;;;;;;14.76;100.00;97660.58;135551;1279;22524;-72
2023/11/14 11:52:46;;;;;;;22.20;3.70;;;;;;;14.74;100.00;97654.77;135534;1279;24297;-72
2023/11/14 11:55:50;;;;;;;;;;;;;;;14.76;100.00;97658.06;135616;1279;23910;-71
2023/11/14 11:58:53;;;;;;;22.40;4.20;;;;;;;14.72;100.00;97659.56;135509;1279;22583;-72
2023/11/14 12:01:57;;;;;;;19.30;3.60;;;;;;;14.37;100.00;97654.93;135586;1279;22537;-73
2023/11/14 12:05:01;;;;;;;21.30;3.60;;;;;;;14.03;100.00;97649.33;135488;1279;22558;-73
2023/11/14 12:08:04;;;;;;;19.50;3.80;;;;;;;13.93;100.00;97652.55;135505;1279;24246;-73
2023/11/14 12:11:14;;;;;;;24.40;5.10;;;;;;;14.27;100.00;97638.48;135528;1279;22540;-72
2023/11/14 12:14:16;;;;;;;26.00;4.70;;;;;;;14.28;100.00;97638.73;135591;1279;22681;-73
2023/11/14 12:17:19;;;;;;;;;;;;;;;14.24;100.00;97648.24;135592;1279;22620;-73
2023/11/14 12:20:21;;;;;;;23.10;3.90;;;;;;;14.17;100.00;97662.81;135577;1279;22545;-73
2023/11/14 12:23:24;;;;;;;;;;;;;;;14.13;100.00;97656.28;135613;1262;22902;-72
2023/11/14 12:26:27;;;;;;;21.70;3.60;;;;;;;14.13;100.00;97646.10;135554;1279;22511;-71
2023/11/14 12:29:30;;;;;;;19.10;3.90;;;;;;;14.06;100.00;97636.58;135502;1279;22550;-72
2023/11/14 12:32:32;;;;;;;19.60;3.70;;;;;;;14.30;100.00;97632.42;135571;1262;24231;-71
2023/11/14 12:35:35;;;;;;;;;;;;;;;14.10;100.00;97630.08;135627;1279;25265;-72
2023/11/14 12:38:38;;;;;;;16.40;3.70;;;;;;;14.15;100.00;97624.17;135581;1279;22634;-73
2023/11/14 12:41:41;;;;;;;20.10;3.90;;;;;;;13.81;100.00;97620.08;135592;1279;22543;-73
2023/11/14 12:44:43;;;;;;;;;;;;;;;13.99;100.00;97615.77;135577;1279;22517;-73
2023/11/14 12:47:47;;;;;;;22.00;4.00;;;;;;;14.08;100.00;97637.83;135616;1263;22556;-72
2023/11/14 12:50:49;;;;;;;26.80;5.40;;;;;;;14.09;100.00;97645.41;135579;1279;22536;-71
2023/11/14 12:53:53;;;;;;;22.70;4.60;;;;;;;14.16;100.00;97648.29;135576;1279;22560;-74
2023/11/14 12:56:56;;;;;;;25.00;6.00;;;;;;;14.16;100.00;97641.95;135555;1279;23902;-72
2023/11/14 13:00:00;;;;;;;;;;;;;;;13.93;100.00;97617.80;135578;1279;22497;-72
2023/11/14 13:03:04;;;;;;;21.00;4.50;;;;;;;14.07;100.00;97614.16;135607;1279;22536;-73
2023/11/14 13:06:06;;;;;;;19.60;3.80;;;;;;;14.04;100.00;97617.41;135545;1279;22541;-71
2023/11/14 13:09:10;;;;;;;;;;;;;;;13.95;100.00;97635.33;135581;1279;22651;-72
2023/11/14 13:12:14;;;;;;;26.30;4.90;;;;;;;13.81;100.00;97646.52;135595;1279;22550;-75
2023/11/14 13:15:16;;;;;;;24.40;4.00;;;;;;;13.64;100.00;97650.98;135550;1279;25281;-73
2023/11/14 13:18:20;;;;;;;20.90;4.10;;;;;;;13.63;100.00;97653.06;135608;1279;22539;-74
2023/11/14 13:21:23;;;;;;;17.70;3.80;;;;;;;13.65;100.00;97654.05;135595;1279;24278;-75
2023/11/14 13:24:25;;;;;;;;;;;;;;;13.76;100.00;97647.58;135595;1279;22520;-74
2023/11/14 13:27:28;;;;;;;20.10;3.50;;;;;;;14.08;100.00;97653.64;135613;1270;22533;-72
2023/11/14 13:30:31;;;;;;;19.30;3.80;;;;;;;13.85;100.00;97653.46;135613;1279;22642;-73
2023/11/14 13:33:34;;;;;;;;;;;;;;;13.92;100.00;97658.08;135594;1279;22514;-73
2023/11/14 13:36:37;;;;;;;20.80;3.60;;;;;;;13.87;100.00;97658.56;135589;1260;25387;-73
2023/11/14 13:39:41;;;;;;;;;;;;;;;13.82;100.00;97665.34;135613;1279;22513;-74
2023/11/14 13:42:44;;;;;;;22.10;3.80;;;;;;;13.78;100.00;97659.55;135584;1279;22533;-73
2023/11/14 13:45:47;;;;;;;21.90;4.40;;;;;;;13.78;100.00;97656.39;135577;1279;22545;-72
2023/11/14 13:48:50;;;;;;;17.40;3.40;;;;;;;13.47;100.00;97649.60;135573;1279;22546;-73
2023/11/14 13:51:53;;;;;;;20.00;3.90;;;;;;;13.53;100.00;97641.48;135595;1279;22657;-75
2023/11/14 13:54:56;;;;;;;23.50;4.40;;;;;;;13.96;100.00;97643.66;135586;1279;22534;-73
2023/11/14 13:57:59;;;;;;;22.90;4.30;;;;;;;13.70;100.00;97646.23;135577;1279;22562;-73
2023/11/14 14:01:01;;;;;;;;;;;;;;;13.84;100.00;97643.72;135599;1279;22538;-72
2023/11/14 14:04:04;;;;;;;21.60;3.80;;;;;;;13.83;100.00;97631.33;135553;1279;25425;-72
2023/11/14 14:07:06;;;;;;;;;;;;;;;13.58;100.00;97639.83;135575;1279;22509;-72
2023/11/14 14:10:10;;;;;;;20.50;4.70;;;;;;;13.68;100.00;97636.91;135584;1279;22538;-73
2023/11/14 14:13:14;;;;;;;17.40;3.70;;;;;;;13.75;100.00;97624.00;135596;1279;22555;-76
2023/11/14 14:16:18;;;;;;;23.80;4.80;;;;;;;13.55;100.00;97629.56;135597;1279;22474;-74
2023/11/14 14:19:21;;;;;;;16.40;3.50;;;;;;;13.44;100.00;97620.86;135613;1279;22645;-73
2023/11/14 14:22:25;;;;;;;20.10;4.10;;;;;;;13.50;100.00;97613.80;135593;1279;22540;-73
2023/11/14 14:25:28;;;;;;;20.20;4.40;;;;;;;13.33;100.00;97617.46;135606;1279;26664;-74
2023/11/14 14:28:31;;;;;;;19.10;3.60;;;;;;;13.34;100.00;97610.34;135615;1279;22544;-74
2023/11/14 14:31:34;;;;;;;18.30;3.30;;;;;;;13.48;100.00;97616.30;135628;1279;22545;-72
2023/11/14 14:34:36;;;;;;;19.60;4.00;;;;;;;13.42;100.00;97611.23;135616;1279;22581;-74